Accueil
METAR-TAF:

METAR-TAF

Aéroports :

Cambridge, Angleterre

Aéroport international de Cambridge

latitude: 52-12N, longitude: 000-11E, altitude: 15 m

Observation

Le bulletin a été fait il y a 29 minutes, à 16:20 UTC
Vent 8 kt de sud/sud-est
Température 21°C
Humidité 78%
Pression 1017 hPa
Visibilité: 9000 m
Quelques nuages à une hauteur de 2200 ft
Nuages fragmentés à une hauteur de 3300 ft

METAR: EGSC 221620Z 15008KT 9000 FEW022 BKN033 21/17 Q1017

Heure: 17:49 (16:49 UTC)

Prévision

Le bulletin a été fait il y a 19 minutes, à 16:30 UTC
Prévision valable du 22 à 16 UTC au 22 à 19 UTC
Vent 5 kt de est/sud-est
Visibilité 10 km ou plus
Nuages épars à une hauteur de 2500 ft
Temporairement
du 22 à 16 UTC au 22 à 19 UTC
Visibilité: 9000 m

TAF: EGSC 221630Z 2216/2219 11005KT 9999 SCT025 TEMPO 2216/2219 9000

Observations et prévisions météorologiques de plus de 4000 aéroports (messages METAR et TAF).

Les stations disponibles sont représentées par des disques jaunes et rouges sur la carte.

Passer la souris dessus pour voir le nom de la station.

Cliquer dessus pour voir les observations et prévisions météorologiques.

Pour changer de carte: cliquez sur les boutons verts avec une croix noire pour zoomer, sur le bouton vert avec un tiret pour effectuer un zoom arrière, ou sur les flèches vertes pour les cartes adjacentes.


METAR-TAF: